sensor_id;sensor_type;location;lat;lon;timestamp;P1;durP1;ratioP1;P2;durP2;ratioP2
29728;SDS011;20055;51.498;11.960;2023-08-06T00:00:54;9.93;;;3.95;;
29728;SDS011;20055;51.498;11.960;2023-08-06T00:03:20;10.65;;;4.50;;
29728;SDS011;20055;51.498;11.960;2023-08-06T00:05:47;11.88;;;4.47;;
29728;SDS011;20055;51.498;11.960;2023-08-06T00:08:13;9.93;;;5.03;;
29728;SDS011;20055;51.498;11.960;2023-08-06T00:10:39;17.60;;;4.60;;
29728;SDS011;20055;51.498;11.960;2023-08-06T00:13:07;12.57;;;4.70;;
29728;SDS011;20055;51.498;11.960;2023-08-06T00:15:33;11.82;;;5.00;;
29728;SDS011;20055;51.498;11.960;2023-08-06T00:17:59;8.50;;;4.97;;
29728;SDS011;20055;51.498;11.960;2023-08-06T00:20:26;8.93;;;5.10;;
29728;SDS011;20055;51.498;11.960;2023-08-06T00:22:52;10.93;;;4.32;;
29728;SDS011;20055;51.498;11.960;2023-08-06T00:25:18;9.20;;;4.57;;
29728;SDS011;20055;51.498;11.960;2023-08-06T00:27:45;10.30;;;4.38;;
29728;SDS011;20055;51.498;11.960;2023-08-06T00:30:11;7.80;;;4.18;;
29728;SDS011;20055;51.498;11.960;2023-08-06T00:32:37;8.43;;;4.38;;
29728;SDS011;20055;51.498;11.960;2023-08-06T00:35:04;9.32;;;4.10;;
29728;SDS011;20055;51.498;11.960;2023-08-06T00:37:30;13.38;;;4.35;;
29728;SDS011;20055;51.498;11.960;2023-08-06T00:39:56;17.58;;;4.80;;
29728;SDS011;20055;51.498;11.960;2023-08-06T00:42:23;14.20;;;5.97;;
29728;SDS011;20055;51.498;11.960;2023-08-06T00:44:50;12.93;;;5.57;;
29728;SDS011;20055;51.498;11.960;2023-08-06T00:47:16;8.65;;;5.05;;
29728;SDS011;20055;51.498;11.960;2023-08-06T00:49:44;18.40;;;6.03;;
29728;SDS011;20055;51.498;11.960;2023-08-06T00:52:10;9.63;;;5.07;;
29728;SDS011;20055;51.498;11.960;2023-08-06T00:54:38;7.63;;;4.57;;
29728;SDS011;20055;51.498;11.960;2023-08-06T00:57:05;9.73;;;5.53;;
29728;SDS011;20055;51.498;11.960;2023-08-06T00:59:34;19.63;;;5.30;;
29728;SDS011;20055;51.498;11.960;2023-08-06T01:02:01;11.52;;;5.55;;
29728;SDS011;20055;51.498;11.960;2023-08-06T01:04:27;13.20;;;6.25;;
29728;SDS011;20055;51.498;11.960;2023-08-06T01:12:34;7.80;;;3.72;;
29728;SDS011;20055;51.498;11.960;2023-08-06T01:15:19;4.87;;;2.00;;
29728;SDS011;20055;51.498;11.960;2023-08-06T01:17:58;3.33;;;1.90;;
29728;SDS011;20055;51.498;11.960;2023-08-06T01:20:28;4.10;;;1.70;;
29728;SDS011;20055;51.498;11.960;2023-08-06T01:22:56;8.65;;;1.70;;
29728;SDS011;20055;51.498;11.960;2023-08-06T01:25:22;2.00;;;1.70;;
29728;SDS011;20055;51.498;11.960;2023-08-06T01:27:57;3.70;;;2.13;;
29728;SDS011;20055;51.498;11.960;2023-08-06T01:30:30;3.10;;;2.08;;
29728;SDS011;20055;51.498;11.960;2023-08-06T01:33:02;3.10;;;1.92;;
29728;SDS011;20055;51.498;11.960;2023-08-06T01:35:32;4.75;;;2.28;;
29728;SDS011;20055;51.498;11.960;2023-08-06T01:38:02;4.38;;;1.60;;
29728;SDS011;20055;51.498;11.960;2023-08-06T01:40:30;5.85;;;1.80;;
29728;SDS011;20055;51.498;11.960;2023-08-06T01:42:57;3.45;;;1.73;;
29728;SDS011;20055;51.498;11.960;2023-08-06T01:45:24;3.15;;;2.13;;
29728;SDS011;20055;51.498;11.960;2023-08-06T01:47:50;3.63;;;2.22;;
29728;SDS011;20055;51.498;11.960;2023-08-06T01:50:17;4.13;;;2.10;;
29728;SDS011;20055;51.498;11.960;2023-08-06T01:52:44;4.78;;;1.67;;
29728;SDS011;20055;51.498;11.960;2023-08-06T01:55:10;6.20;;;1.83;;
29728;SDS011;20055;51.498;11.960;2023-08-06T01:57:37;4.70;;;1.92;;
29728;SDS011;20055;51.498;11.960;2023-08-06T02:00:03;4.68;;;1.75;;
29728;SDS011;20055;51.498;11.960;2023-08-06T02:02:38;3.20;;;1.98;;
29728;SDS011;20055;51.498;11.960;2023-08-06T02:05:06;2.80;;;1.60;;
29728;SDS011;20055;51.498;11.960;2023-08-06T02:07:32;3.63;;;1.55;;
29728;SDS011;20055;51.498;11.960;2023-08-06T02:09:59;4.22;;;1.70;;
29728;SDS011;20055;51.498;11.960;2023-08-06T02:12:25;2.17;;;1.55;;
29728;SDS011;20055;51.498;11.960;2023-08-06T02:14:51;3.72;;;1.95;;
29728;SDS011;20055;51.498;11.960;2023-08-06T02:17:17;3.55;;;1.73;;
29728;SDS011;20055;51.498;11.960;2023-08-06T02:19:44;2.90;;;1.73;;
29728;SDS011;20055;51.498;11.960;2023-08-06T02:22:10;7.07;;;2.22;;
29728;SDS011;20055;51.498;11.960;2023-08-06T02:24:36;6.47;;;1.50;;
29728;SDS011;20055;51.498;11.960;2023-08-06T02:27:02;3.40;;;1.52;;
29728;SDS011;20055;51.498;11.960;2023-08-06T02:29:29;2.25;;;1.65;;
29728;SDS011;20055;51.498;11.960;2023-08-06T02:31:55;2.42;;;1.70;;
29728;SDS011;20055;51.498;11.960;2023-08-06T02:34:21;2.67;;;1.80;;
29728;SDS011;20055;51.498;11.960;2023-08-06T02:36:47;4.35;;;1.60;;
29728;SDS011;20055;51.498;11.960;2023-08-06T02:39:13;6.28;;;2.15;;
29728;SDS011;20055;51.498;11.960;2023-08-06T02:41:40;3.90;;;2.10;;
29728;SDS011;20055;51.498;11.960;2023-08-06T02:44:06;3.90;;;3.00;;
29728;SDS011;20055;51.498;11.960;2023-08-06T02:46:32;6.10;;;2.90;;
29728;SDS011;20055;51.498;11.960;2023-08-06T02:48:58;4.00;;;2.75;;
29728;SDS011;20055;51.498;11.960;2023-08-06T02:51:25;2.88;;;2.03;;
29728;SDS011;20055;51.498;11.960;2023-08-06T02:53:51;3.30;;;2.08;;
29728;SDS011;20055;51.498;11.960;2023-08-06T02:56:19;4.03;;;1.92;;
29728;SDS011;20055;51.498;11.960;2023-08-06T02:59:03;3.42;;;2.00;;
29728;SDS011;20055;51.498;11.960;2023-08-06T03:01:42;4.53;;;2.15;;
29728;SDS011;20055;51.498;11.960;2023-08-06T03:04:16;5.45;;;1.80;;
29728;SDS011;20055;51.498;11.960;2023-08-06T03:06:46;4.72;;;2.28;;
29728;SDS011;20055;51.498;11.960;2023-08-06T03:09:12;3.33;;;2.30;;
29728;SDS011;20055;51.498;11.960;2023-08-06T03:11:39;13.10;;;2.67;;
29728;SDS011;20055;51.498;11.960;2023-08-06T03:16:36;2.75;;;2.20;;
29728;SDS011;20055;51.498;11.960;2023-08-06T03:19:03;7.47;;;2.00;;
29728;SDS011;20055;51.498;11.960;2023-08-06T03:21:29;6.40;;;2.33;;
29728;SDS011;20055;51.498;11.960;2023-08-06T03:23:56;4.60;;;2.72;;
29728;SDS011;20055;51.498;11.960;2023-08-06T03:26:26;7.07;;;2.73;;
29728;SDS011;20055;51.498;11.960;2023-08-06T03:28:52;3.00;;;2.08;;
29728;SDS011;20055;51.498;11.960;2023-08-06T03:31:19;4.90;;;2.30;;
29728;SDS011;20055;51.498;11.960;2023-08-06T03:33:45;2.88;;;2.38;;
29728;SDS011;20055;51.498;11.960;2023-08-06T03:36:15;3.83;;;2.78;;
29728;SDS011;20055;51.498;11.960;2023-08-06T03:38:42;4.05;;;2.20;;
29728;SDS011;20055;51.498;11.960;2023-08-06T03:41:11;4.57;;;2.67;;
29728;SDS011;20055;51.498;11.960;2023-08-06T03:43:38;5.47;;;2.88;;
29728;SDS011;20055;51.498;11.960;2023-08-06T03:48:34;4.47;;;2.65;;
29728;SDS011;20055;51.498;11.960;2023-08-06T03:51:00;6.38;;;2.53;;
29728;SDS011;20055;51.498;11.960;2023-08-06T03:53:28;6.30;;;2.78;;
29728;SDS011;20055;51.498;11.960;2023-08-06T03:55:54;5.35;;;2.85;;
29728;SDS011;20055;51.498;11.960;2023-08-06T03:58:25;5.43;;;3.13;;
29728;SDS011;20055;51.498;11.960;2023-08-06T04:00:59;3.70;;;2.33;;
29728;SDS011;20055;51.498;11.960;2023-08-06T04:03:27;8.45;;;2.55;;
29728;SDS011;20055;51.498;11.960;2023-08-06T04:05:53;5.70;;;2.33;;
29728;SDS011;20055;51.498;11.960;2023-08-06T04:08:20;10.25;;;3.05;;
29728;SDS011;20055;51.498;11.960;2023-08-06T04:10:53;12.43;;;2.38;;
29728;SDS011;20055;51.498;11.960;2023-08-06T04:13:19;5.75;;;2.83;;
29728;SDS011;20055;51.498;11.960;2023-08-06T04:15:46;3.97;;;2.63;;
29728;SDS011;20055;51.498;11.960;2023-08-06T04:18:13;4.70;;;2.83;;
29728;SDS011;20055;51.498;11.960;2023-08-06T04:20:46;6.47;;;2.85;;
29728;SDS011;20055;51.498;11.960;2023-08-06T04:23:14;4.35;;;2.60;;
29728;SDS011;20055;51.498;11.960;2023-08-06T04:25:41;4.60;;;2.42;;
29728;SDS011;20055;51.498;11.960;2023-08-06T04:28:08;3.45;;;2.42;;
29728;SDS011;20055;51.498;11.960;2023-08-06T04:30:34;4.93;;;2.33;;
29728;SDS011;20055;51.498;11.960;2023-08-06T04:33:01;6.22;;;3.05;;
29728;SDS011;20055;51.498;11.960;2023-08-06T04:35:28;5.45;;;2.15;;
29728;SDS011;20055;51.498;11.960;2023-08-06T04:37:55;3.50;;;2.10;;
29728;SDS011;20055;51.498;11.960;2023-08-06T04:40:22;3.80;;;2.25;;
29728;SDS011;20055;51.498;11.960;2023-08-06T04:42:48;3.13;;;2.03;;
29728;SDS011;20055;51.498;11.960;2023-08-06T04:45:14;3.35;;;1.65;;
29728;SDS011;20055;51.498;11.960;2023-08-06T04:47:41;3.38;;;1.77;;
29728;SDS011;20055;51.498;11.960;2023-08-06T04:50:07;4.85;;;1.95;;
29728;SDS011;20055;51.498;11.960;2023-08-06T04:52:33;4.72;;;2.15;;
29728;SDS011;20055;51.498;11.960;2023-08-06T04:54:59;2.90;;;1.75;;
29728;SDS011;20055;51.498;11.960;2023-08-06T04:57:26;3.53;;;1.88;;
29728;SDS011;20055;51.498;11.960;2023-08-06T04:59:52;6.28;;;2.00;;
29728;SDS011;20055;51.498;11.960;2023-08-06T05:02:18;2.53;;;1.70;;
29728;SDS011;20055;51.498;11.960;2023-08-06T05:04:44;2.13;;;1.60;;
29728;SDS011;20055;51.498;11.960;2023-08-06T05:07:10;2.17;;;1.65;;
29728;SDS011;20055;51.498;11.960;2023-08-06T05:09:37;5.47;;;1.80;;
29728;SDS011;20055;51.498;11.960;2023-08-06T05:12:03;4.07;;;1.52;;
29728;SDS011;20055;51.498;11.960;2023-08-06T05:14:30;5.75;;;1.90;;
29728;SDS011;20055;51.498;11.960;2023-08-06T05:16:56;3.40;;;1.90;;
29728;SDS011;20055;51.498;11.960;2023-08-06T05:19:22;2.95;;;1.80;;
29728;SDS011;20055;51.498;11.960;2023-08-06T05:21:49;2.55;;;1.35;;
29728;SDS011;20055;51.498;11.960;2023-08-06T05:24:15;2.97;;;1.65;;
29728;SDS011;20055;51.498;11.960;2023-08-06T05:26:41;1.70;;;1.52;;
29728;SDS011;20055;51.498;11.960;2023-08-06T05:29:07;5.82;;;1.48;;
29728;SDS011;20055;51.498;11.960;2023-08-06T05:31:34;1.58;;;1.48;;
29728;SDS011;20055;51.498;11.960;2023-08-06T05:34:00;3.63;;;1.33;;
29728;SDS011;20055;51.498;11.960;2023-08-06T05:36:27;2.70;;;1.60;;
29728;SDS011;20055;51.498;11.960;2023-08-06T05:38:53;2.90;;;2.00;;
29728;SDS011;20055;51.498;11.960;2023-08-06T05:41:19;4.20;;;1.45;;
29728;SDS011;20055;51.498;11.960;2023-08-06T05:43:45;3.40;;;1.95;;
29728;SDS011;20055;51.498;11.960;2023-08-06T05:46:12;5.43;;;2.25;;
29728;SDS011;20055;51.498;11.960;2023-08-06T05:48:38;3.00;;;1.88;;
29728;SDS011;20055;51.498;11.960;2023-08-06T05:51:04;6.60;;;2.53;;
29728;SDS011;20055;51.498;11.960;2023-08-06T05:53:31;2.67;;;2.15;;
29728;SDS011;20055;51.498;11.960;2023-08-06T05:55:57;3.28;;;2.38;;
29728;SDS011;20055;51.498;11.960;2023-08-06T05:58:24;5.25;;;2.47;;
29728;SDS011;20055;51.498;11.960;2023-08-06T06:00:51;4.80;;;2.50;;
29728;SDS011;20055;51.498;11.960;2023-08-06T06:03:18;4.82;;;2.40;;
29728;SDS011;20055;51.498;11.960;2023-08-06T06:05:44;2.80;;;2.15;;
29728;SDS011;20055;51.498;11.960;2023-08-06T06:08:10;6.10;;;2.47;;
29728;SDS011;20055;51.498;11.960;2023-08-06T06:10:37;5.60;;;2.22;;
29728;SDS011;20055;51.498;11.960;2023-08-06T06:13:03;5.05;;;2.75;;
29728;SDS011;20055;51.498;11.960;2023-08-06T06:15:29;3.92;;;2.10;;
29728;SDS011;20055;51.498;11.960;2023-08-06T06:17:55;4.18;;;1.98;;
29728;SDS011;20055;51.498;11.960;2023-08-06T06:20:22;4.43;;;2.38;;
29728;SDS011;20055;51.498;11.960;2023-08-06T06:22:48;5.10;;;2.30;;
29728;SDS011;20055;51.498;11.960;2023-08-06T06:25:14;2.17;;;1.80;;
29728;SDS011;20055;51.498;11.960;2023-08-06T06:27:41;5.38;;;1.95;;
29728;SDS011;20055;51.498;11.960;2023-08-06T06:30:07;4.47;;;1.50;;
29728;SDS011;20055;51.498;11.960;2023-08-06T06:32:34;3.30;;;1.80;;
29728;SDS011;20055;51.498;11.960;2023-08-06T06:35:00;2.67;;;1.75;;
29728;SDS011;20055;51.498;11.960;2023-08-06T06:37:26;5.32;;;1.83;;
29728;SDS011;20055;51.498;11.960;2023-08-06T06:39:53;4.47;;;1.52;;
29728;SDS011;20055;51.498;11.960;2023-08-06T06:42:19;1.65;;;1.50;;
29728;SDS011;20055;51.498;11.960;2023-08-06T06:44:50;2.80;;;1.52;;
29728;SDS011;20055;51.498;11.960;2023-08-06T06:47:16;1.90;;;1.38;;
29728;SDS011;20055;51.498;11.960;2023-08-06T06:49:42;2.97;;;1.67;;
29728;SDS011;20055;51.498;11.960;2023-08-06T06:52:09;2.47;;;1.60;;
29728;SDS011;20055;51.498;11.960;2023-08-06T06:54:35;5.90;;;1.80;;
29728;SDS011;20055;51.498;11.960;2023-08-06T06:57:01;3.80;;;1.48;;
29728;SDS011;20055;51.498;11.960;2023-08-06T06:59:28;1.77;;;1.15;;
29728;SDS011;20055;51.498;11.960;2023-08-06T07:01:54;5.55;;;1.52;;
29728;SDS011;20055;51.498;11.960;2023-08-06T07:04:20;3.55;;;1.50;;
29728;SDS011;20055;51.498;11.960;2023-08-06T07:06:47;2.17;;;1.50;;
29728;SDS011;20055;51.498;11.960;2023-08-06T07:09:13;2.25;;;1.08;;
29728;SDS011;20055;51.498;11.960;2023-08-06T07:11:39;1.55;;;1.30;;
29728;SDS011;20055;51.498;11.960;2023-08-06T07:14:09;4.20;;;1.70;;
29728;SDS011;20055;51.498;11.960;2023-08-06T07:16:35;4.55;;;1.50;;
29728;SDS011;20055;51.498;11.960;2023-08-06T07:19:01;2.33;;;1.42;;
29728;SDS011;20055;51.498;11.960;2023-08-06T07:21:27;3.53;;;1.45;;
29728;SDS011;20055;51.498;11.960;2023-08-06T07:23:54;2.30;;;1.33;;
29728;SDS011;20055;51.498;11.960;2023-08-06T07:26:20;2.60;;;1.52;;
29728;SDS011;20055;51.498;11.960;2023-08-06T07:28:46;4.45;;;1.98;;
29728;SDS011;20055;51.498;11.960;2023-08-06T07:31:12;5.50;;;1.42;;
29728;SDS011;20055;51.498;11.960;2023-08-06T07:33:39;6.45;;;1.50;;
29728;SDS011;20055;51.498;11.960;2023-08-06T07:36:09;1.63;;;1.20;;
29728;SDS011;20055;51.498;11.960;2023-08-06T07:38:39;2.45;;;1.58;;
29728;SDS011;20055;51.498;11.960;2023-08-06T07:41:05;2.95;;;1.90;;
29728;SDS011;20055;51.498;11.960;2023-08-06T07:43:32;3.65;;;1.58;;
29728;SDS011;20055;51.498;11.960;2023-08-06T07:45:58;3.80;;;1.77;;
29728;SDS011;20055;51.498;11.960;2023-08-06T07:48:26;6.50;;;2.05;;
29728;SDS011;20055;51.498;11.960;2023-08-06T07:50:55;8.30;;;1.90;;
29728;SDS011;20055;51.498;11.960;2023-08-06T07:53:22;2.53;;;1.70;;
29728;SDS011;20055;51.498;11.960;2023-08-06T07:55:52;4.88;;;1.60;;
29728;SDS011;20055;51.498;11.960;2023-08-06T07:58:20;3.03;;;1.80;;
29728;SDS011;20055;51.498;11.960;2023-08-06T08:00:46;2.97;;;1.58;;
29728;SDS011;20055;51.498;11.960;2023-08-06T08:03:14;2.97;;;1.90;;
29728;SDS011;20055;51.498;11.960;2023-08-06T08:05:42;3.30;;;1.42;;
29728;SDS011;20055;51.498;11.960;2023-08-06T08:08:09;3.85;;;1.30;;
29728;SDS011;20055;51.498;11.960;2023-08-06T08:10:35;3.25;;;1.50;;
29728;SDS011;20055;51.498;11.960;2023-08-06T08:13:03;3.00;;;1.27;;
29728;SDS011;20055;51.498;11.960;2023-08-06T08:15:30;3.17;;;1.42;;
29728;SDS011;20055;51.498;11.960;2023-08-06T08:17:58;2.88;;;1.67;;
29728;SDS011;20055;51.498;11.960;2023-08-06T08:20:25;2.85;;;1.67;;
29728;SDS011;20055;51.498;11.960;2023-08-06T08:22:57;4.50;;;1.73;;
29728;SDS011;20055;51.498;11.960;2023-08-06T08:25:25;3.17;;;1.67;;
29728;SDS011;20055;51.498;11.960;2023-08-06T08:27:53;1.80;;;1.48;;
29728;SDS011;20055;51.498;11.960;2023-08-06T08:30:19;4.15;;;1.63;;
29728;SDS011;20055;51.498;11.960;2023-08-06T08:32:46;3.08;;;1.48;;
29728;SDS011;20055;51.498;11.960;2023-08-06T08:35:13;2.35;;;1.40;;
29728;SDS011;20055;51.498;11.960;2023-08-06T08:37:42;2.63;;;1.50;;
29728;SDS011;20055;51.498;11.960;2023-08-06T08:40:09;4.18;;;1.65;;
29728;SDS011;20055;51.498;11.960;2023-08-06T08:42:36;5.68;;;1.95;;
29728;SDS011;20055;51.498;11.960;2023-08-06T08:45:06;3.25;;;1.88;;
29728;SDS011;20055;51.498;11.960;2023-08-06T08:47:42;3.88;;;1.67;;
29728;SDS011;20055;51.498;11.960;2023-08-06T08:50:09;3.63;;;1.60;;
29728;SDS011;20055;51.498;11.960;2023-08-06T08:52:40;2.40;;;1.80;;
29728;SDS011;20055;51.498;11.960;2023-08-06T08:55:07;6.00;;;1.85;;
29728;SDS011;20055;51.498;11.960;2023-08-06T08:57:34;3.72;;;1.60;;
29728;SDS011;20055;51.498;11.960;2023-08-06T09:00:00;2.17;;;1.50;;
29728;SDS011;20055;51.498;11.960;2023-08-06T09:02:28;3.33;;;1.60;;
29728;SDS011;20055;51.498;11.960;2023-08-06T09:04:56;7.72;;;1.90;;
29728;SDS011;20055;51.498;11.960;2023-08-06T09:07:27;6.68;;;1.63;;
29728;SDS011;20055;51.498;11.960;2023-08-06T09:09:58;4.10;;;1.80;;
29728;SDS011;20055;51.498;11.960;2023-08-06T09:12:29;2.70;;;1.33;;
29728;SDS011;20055;51.498;11.960;2023-08-06T09:14:55;2.33;;;1.30;;
29728;SDS011;20055;51.498;11.960;2023-08-06T09:17:22;7.30;;;2.22;;
29728;SDS011;20055;51.498;11.960;2023-08-06T09:19:48;5.82;;;2.78;;
29728;SDS011;20055;51.498;11.960;2023-08-06T09:22:15;5.95;;;1.80;;
29728;SDS011;20055;51.498;11.960;2023-08-06T09:24:41;2.90;;;1.50;;
29728;SDS011;20055;51.498;11.960;2023-08-06T09:27:12;4.57;;;1.40;;
29728;SDS011;20055;51.498;11.960;2023-08-06T09:29:40;7.75;;;1.65;;
29728;SDS011;20055;51.498;11.960;2023-08-06T09:32:11;7.32;;;1.88;;
29728;SDS011;20055;51.498;11.960;2023-08-06T09:34:39;3.38;;;1.73;;
29728;SDS011;20055;51.498;11.960;2023-08-06T09:37:09;5.45;;;1.40;;
29728;SDS011;20055;51.498;11.960;2023-08-06T09:39:39;3.40;;;1.90;;
29728;SDS011;20055;51.498;11.960;2023-08-06T09:42:07;3.20;;;1.45;;
29728;SDS011;20055;51.498;11.960;2023-08-06T09:44:34;6.90;;;2.13;;
29728;SDS011;20055;51.498;11.960;2023-08-06T09:47:02;5.53;;;1.30;;
29728;SDS011;20055;51.498;11.960;2023-08-06T09:51:58;3.35;;;1.63;;
29728;SDS011;20055;51.498;11.960;2023-08-06T09:54:26;5.45;;;1.70;;
29728;SDS011;20055;51.498;11.960;2023-08-06T09:56:54;5.82;;;1.65;;
29728;SDS011;20055;51.498;11.960;2023-08-06T09:59:20;3.45;;;1.75;;
29728;SDS011;20055;51.498;11.960;2023-08-06T10:01:48;3.03;;;1.50;;
29728;SDS011;20055;51.498;11.960;2023-08-06T10:04:15;3.83;;;1.30;;
29728;SDS011;20055;51.498;11.960;2023-08-06T10:06:46;3.43;;;1.40;;
29728;SDS011;20055;51.498;11.960;2023-08-06T10:09:16;2.42;;;1.50;;
29728;SDS011;20055;51.498;11.960;2023-08-06T10:11:43;3.08;;;1.55;;
29728;SDS011;20055;51.498;11.960;2023-08-06T10:14:26;1.35;;;1.20;;
29728;SDS011;20055;51.498;11.960;2023-08-06T10:16:58;2.22;;;1.63;;
29728;SDS011;20055;51.498;11.960;2023-08-06T10:19:25;3.38;;;1.65;;
29728;SDS011;20055;51.498;11.960;2023-08-06T10:24:48;2.88;;;1.48;;
29728;SDS011;20055;51.498;11.960;2023-08-06T10:27:28;3.08;;;1.85;;
29728;SDS011;20055;51.498;11.960;2023-08-06T10:32:53;3.65;;;1.25;;
29728;SDS011;20055;51.498;11.960;2023-08-06T10:35:34;4.88;;;1.23;;
29728;SDS011;20055;51.498;11.960;2023-08-06T10:38:11;3.30;;;1.92;;
29728;SDS011;20055;51.498;11.960;2023-08-06T10:43:33;4.68;;;1.48;;
29728;SDS011;20055;51.498;11.960;2023-08-06T10:48:33;1.60;;;1.20;;
29728;SDS011;20055;51.498;11.960;2023-08-06T10:51:04;4.40;;;1.60;;
29728;SDS011;20055;51.498;11.960;2023-08-06T10:53:38;1.77;;;1.15;;
29728;SDS011;20055;51.498;11.960;2023-08-06T10:58:37;2.05;;;1.60;;
29728;SDS011;20055;51.498;11.960;2023-08-06T11:01:04;3.35;;;1.55;;
29728;SDS011;20055;51.498;11.960;2023-08-06T11:03:31;1.85;;;1.48;;
29728;SDS011;20055;51.498;11.960;2023-08-06T11:05:58;1.48;;;1.20;;
29728;SDS011;20055;51.498;11.960;2023-08-06T11:08:25;1.40;;;1.10;;
29728;SDS011;20055;51.498;11.960;2023-08-06T11:10:52;2.38;;;1.60;;
29728;SDS011;20055;51.498;11.960;2023-08-06T11:13:22;2.67;;;1.30;;
29728;SDS011;20055;51.498;11.960;2023-08-06T11:15:48;1.40;;;1.17;;
29728;SDS011;20055;51.498;11.960;2023-08-06T11:18:14;2.10;;;1.10;;
29728;SDS011;20055;51.498;11.960;2023-08-06T11:20:41;5.53;;;1.30;;
29728;SDS011;20055;51.498;11.960;2023-08-06T11:23:09;7.00;;;1.98;;
29728;SDS011;20055;51.498;11.960;2023-08-06T11:25:36;2.75;;;1.50;;
29728;SDS011;20055;51.498;11.960;2023-08-06T11:28:03;2.22;;;1.17;;
29728;SDS011;20055;51.498;11.960;2023-08-06T11:30:30;2.22;;;1.17;;
29728;SDS011;20055;51.498;11.960;2023-08-06T11:32:56;1.98;;;1.25;;
29728;SDS011;20055;51.498;11.960;2023-08-06T11:35:22;3.05;;;1.40;;
29728;SDS011;20055;51.498;11.960;2023-08-06T11:37:48;1.20;;;1.02;;
29728;SDS011;20055;51.498;11.960;2023-08-06T11:40:15;3.78;;;1.40;;
29728;SDS011;20055;51.498;11.960;2023-08-06T11:42:42;4.13;;;1.30;;
29728;SDS011;20055;51.498;11.960;2023-08-06T11:45:08;1.75;;;1.10;;
29728;SDS011;20055;51.498;11.960;2023-08-06T11:47:37;2.83;;;1.10;;
29728;SDS011;20055;51.498;11.960;2023-08-06T11:50:06;2.70;;;1.20;;
29728;SDS011;20055;51.498;11.960;2023-08-06T11:52:32;2.05;;;1.20;;
29728;SDS011;20055;51.498;11.960;2023-08-06T11:57:54;5.28;;;1.30;;
29728;SDS011;20055;51.498;11.960;2023-08-06T12:00:22;6.32;;;1.98;;
29728;SDS011;20055;51.498;11.960;2023-08-06T12:02:50;1.98;;;1.35;;
29728;SDS011;20055;51.498;11.960;2023-08-06T12:05:18;1.75;;;1.15;;
29728;SDS011;20055;51.498;11.960;2023-08-06T12:07:55;2.50;;;1.25;;
29728;SDS011;20055;51.498;11.960;2023-08-06T12:10:24;1.33;;;1.08;;
29728;SDS011;20055;51.498;11.960;2023-08-06T12:12:53;2.58;;;1.40;;
29728;SDS011;20055;51.498;11.960;2023-08-06T12:15:20;2.45;;;1.50;;
29728;SDS011;20055;51.498;11.960;2023-08-06T12:17:46;3.75;;;1.30;;
29728;SDS011;20055;51.498;11.960;2023-08-06T12:20:12;4.68;;;1.30;;
29728;SDS011;20055;51.498;11.960;2023-08-06T12:22:42;5.55;;;1.52;;
29728;SDS011;20055;51.498;11.960;2023-08-06T12:25:10;3.42;;;1.10;;
29728;SDS011;20055;51.498;11.960;2023-08-06T12:27:38;1.90;;;1.33;;
29728;SDS011;20055;51.498;11.960;2023-08-06T12:30:07;4.55;;;1.35;;
29728;SDS011;20055;51.498;11.960;2023-08-06T12:32:34;1.77;;;1.30;;
29728;SDS011;20055;51.498;11.960;2023-08-06T12:35:00;3.92;;;1.60;;
29728;SDS011;20055;51.498;11.960;2023-08-06T12:37:27;2.08;;;1.15;;
29728;SDS011;20055;51.498;11.960;2023-08-06T12:39:54;3.60;;;1.17;;
29728;SDS011;20055;51.498;11.960;2023-08-06T12:42:20;1.85;;;1.23;;
29728;SDS011;20055;51.498;11.960;2023-08-06T12:44:48;4.93;;;1.40;;
29728;SDS011;20055;51.498;11.960;2023-08-06T12:47:15;3.08;;;1.35;;
29728;SDS011;20055;51.498;11.960;2023-08-06T12:49:42;2.88;;;1.20;;
29728;SDS011;20055;51.498;11.960;2023-08-06T12:52:08;1.85;;;1.30;;
29728;SDS011;20055;51.498;11.960;2023-08-06T12:54:35;2.42;;;1.60;;
29728;SDS011;20055;51.498;11.960;2023-08-06T12:57:04;2.83;;;1.40;;
29728;SDS011;20055;51.498;11.960;2023-08-06T12:59:31;1.70;;;1.30;;
29728;SDS011;20055;51.498;11.960;2023-08-06T13:01:59;2.30;;;1.45;;
29728;SDS011;20055;51.498;11.960;2023-08-06T13:04:26;1.48;;;1.38;;
29728;SDS011;20055;51.498;11.960;2023-08-06T13:06:53;2.35;;;1.30;;
29728;SDS011;20055;51.498;11.960;2023-08-06T13:09:19;1.98;;;1.10;;
29728;SDS011;20055;51.498;11.960;2023-08-06T13:11:45;3.60;;;1.55;;
29728;SDS011;20055;51.498;11.960;2023-08-06T13:14:15;1.65;;;1.13;;
29728;SDS011;20055;51.498;11.960;2023-08-06T13:16:42;1.98;;;1.45;;
29728;SDS011;20055;51.498;11.960;2023-08-06T13:19:10;2.28;;;1.10;;
29728;SDS011;20055;51.498;11.960;2023-08-06T13:24:08;3.40;;;1.33;;
29728;SDS011;20055;51.498;11.960;2023-08-06T13:26:34;4.25;;;1.23;;
29728;SDS011;20055;51.498;11.960;2023-08-06T13:29:01;2.25;;;1.17;;
29728;SDS011;20055;51.498;11.960;2023-08-06T13:31:28;2.22;;;1.10;;
29728;SDS011;20055;51.498;11.960;2023-08-06T13:33:55;3.85;;;1.13;;
29728;SDS011;20055;51.498;11.960;2023-08-06T13:36:23;3.05;;;1.65;;
29728;SDS011;20055;51.498;11.960;2023-08-06T13:38:50;4.55;;;1.42;;
29728;SDS011;20055;51.498;11.960;2023-08-06T13:41:17;2.03;;;1.00;;
29728;SDS011;20055;51.498;11.960;2023-08-06T13:43:43;2.25;;;1.23;;
29728;SDS011;20055;51.498;11.960;2023-08-06T13:46:12;3.17;;;1.40;;
29728;SDS011;20055;51.498;11.960;2023-08-06T13:48:44;2.20;;;1.10;;
29728;SDS011;20055;51.498;11.960;2023-08-06T13:51:11;2.58;;;1.45;;
29728;SDS011;20055;51.498;11.960;2023-08-06T13:53:38;2.60;;;1.20;;
29728;SDS011;20055;51.498;11.960;2023-08-06T13:56:05;1.58;;;1.10;;
29728;SDS011;20055;51.498;11.960;2023-08-06T13:58:32;1.17;;;1.00;;
29728;SDS011;20055;51.498;11.960;2023-08-06T14:00:59;2.65;;;1.45;;
29728;SDS011;20055;51.498;11.960;2023-08-06T14:03:25;3.13;;;1.15;;
29728;SDS011;20055;51.498;11.960;2023-08-06T14:05:51;4.43;;;1.08;;
29728;SDS011;20055;51.498;11.960;2023-08-06T14:08:20;2.55;;;1.20;;
29728;SDS011;20055;51.498;11.960;2023-08-06T14:10:47;4.90;;;1.42;;
29728;SDS011;20055;51.498;11.960;2023-08-06T14:13:14;6.07;;;1.27;;
29728;SDS011;20055;51.498;11.960;2023-08-06T14:15:40;6.28;;;1.63;;
29728;SDS011;20055;51.498;11.960;2023-08-06T14:18:07;4.93;;;1.38;;
29728;SDS011;20055;51.498;11.960;2023-08-06T14:20:36;2.22;;;1.15;;
29728;SDS011;20055;51.498;11.960;2023-08-06T14:23:03;7.63;;;1.40;;
29728;SDS011;20055;51.498;11.960;2023-08-06T14:25:29;2.15;;;0.93;;
29728;SDS011;20055;51.498;11.960;2023-08-06T14:27:55;2.22;;;1.20;;
29728;SDS011;20055;51.498;11.960;2023-08-06T14:30:22;1.88;;;1.10;;
29728;SDS011;20055;51.498;11.960;2023-08-06T14:32:48;3.22;;;1.02;;
29728;SDS011;20055;51.498;11.960;2023-08-06T14:35:14;4.18;;;1.20;;
29728;SDS011;20055;51.498;11.960;2023-08-06T14:37:41;2.97;;;1.08;;
29728;SDS011;20055;51.498;11.960;2023-08-06T14:40:07;1.85;;;1.13;;
29728;SDS011;20055;51.498;11.960;2023-08-06T14:42:34;1.98;;;1.15;;
29728;SDS011;20055;51.498;11.960;2023-08-06T14:45:01;6.78;;;0.98;;
29728;SDS011;20055;51.498;11.960;2023-08-06T14:47:29;1.25;;;1.15;;
29728;SDS011;20055;51.498;11.960;2023-08-06T14:49:55;5.93;;;1.25;;
29728;SDS011;20055;51.498;11.960;2023-08-06T14:52:22;3.00;;;1.55;;
29728;SDS011;20055;51.498;11.960;2023-08-06T14:54:48;3.08;;;1.23;;
29728;SDS011;20055;51.498;11.960;2023-08-06T14:57:18;2.05;;;1.23;;
29728;SDS011;20055;51.498;11.960;2023-08-06T14:59:44;3.20;;;1.30;;
29728;SDS011;20055;51.498;11.960;2023-08-06T15:02:10;5.22;;;1.17;;
29728;SDS011;20055;51.498;11.960;2023-08-06T15:04:37;6.57;;;1.58;;
29728;SDS011;20055;51.498;11.960;2023-08-06T15:07:03;2.78;;;1.80;;